createdAt,value
2023-03-05T00:00:51.073Z,1.90
2023-03-05T00:02:56.045Z,2.10
2023-03-05T00:04:59.513Z,2.00
2023-03-05T00:07:02.995Z,2.10
2023-03-05T00:09:06.976Z,2.00
2023-03-05T00:11:13.355Z,1.90
2023-03-05T00:13:16.898Z,1.80
2023-03-05T00:15:20.514Z,1.90
2023-03-05T00:17:29.260Z,1.90
2023-03-05T00:19:36.394Z,1.80
2023-03-05T00:21:41.167Z,1.70
2023-03-05T00:23:44.572Z,1.60
2023-03-05T00:25:48.169Z,1.50
2023-03-05T00:27:51.732Z,1.60
2023-03-05T00:29:55.841Z,1.70
2023-03-05T00:31:59.470Z,1.60
2023-03-05T00:34:05.008Z,1.60
2023-03-05T00:36:11.344Z,1.70
2023-03-05T00:38:15.740Z,1.80
2023-03-05T00:40:20.275Z,1.60
2023-03-05T00:42:24.078Z,1.60
2023-03-05T00:44:27.575Z,1.70
2023-03-05T00:46:31.098Z,1.70
2023-03-05T00:48:34.947Z,1.60
2023-03-05T00:50:38.341Z,1.60
2023-03-05T00:52:43.110Z,1.50
2023-03-05T00:54:46.692Z,1.60
2023-03-05T00:56:50.222Z,1.40
2023-03-05T00:58:54.672Z,1.50
2023-03-05T01:01:00.282Z,1.50
2023-03-05T01:03:03.832Z,1.40
2023-03-05T01:05:08.172Z,1.40
2023-03-05T01:07:11.718Z,1.50
2023-03-05T01:09:16.871Z,1.40
2023-03-05T01:11:20.543Z,1.30
2023-03-05T01:13:24.079Z,1.40
2023-03-05T01:15:27.502Z,1.50
2023-03-05T01:17:30.847Z,1.50
2023-03-05T01:19:34.740Z,1.70
2023-03-05T01:21:38.577Z,1.70
2023-03-05T01:23:41.868Z,1.60
2023-03-05T01:25:46.698Z,1.50
2023-03-05T01:27:50.039Z,1.30
2023-03-05T01:29:53.459Z,1.20
2023-03-05T01:31:56.927Z,1.30
2023-03-05T01:34:01.308Z,1.30
2023-03-05T01:36:08.402Z,1.30
2023-03-05T01:38:11.835Z,1.30
2023-03-05T01:40:18.880Z,1.30
2023-03-05T01:42:23.935Z,1.30
2023-03-05T01:44:30.107Z,1.20
2023-03-05T01:46:38.189Z,1.20
2023-03-05T01:48:43.956Z,1.30
2023-03-05T01:50:47.332Z,1.20
2023-03-05T01:52:56.427Z,0.90
2023-03-05T01:55:03.328Z,1.00
2023-03-05T01:57:11.340Z,1.10
2023-03-05T01:59:17.372Z,1.10
2023-03-05T02:01:20.919Z,1.00
2023-03-05T02:03:25.342Z,1.00
2023-03-05T02:05:32.834Z,0.90
2023-03-05T02:07:38.208Z,0.80
2023-03-05T02:09:42.456Z,0.90
2023-03-05T02:11:46.342Z,0.80
2023-03-05T02:13:53.944Z,0.90
2023-03-05T02:16:01.516Z,0.80
2023-03-05T02:18:05.030Z,0.70
2023-03-05T02:20:17.432Z,0.70
2023-03-05T02:22:25.203Z,0.60
2023-03-05T02:24:37.111Z,0.50
2023-03-05T02:26:40.798Z,0.40
2023-03-05T02:28:48.386Z,0.50
2023-03-05T02:30:51.911Z,0.60
2023-03-05T02:32:55.577Z,0.40
2023-03-05T02:34:59.074Z,0.60
2023-03-05T02:37:04.571Z,0.60
2023-03-05T02:39:10.268Z,0.60
2023-03-05T02:41:14.595Z,0.50
2023-03-05T02:43:18.191Z,0.50
2023-03-05T02:45:21.768Z,0.40
2023-03-05T02:47:25.260Z,0.50
2023-03-05T02:49:29.132Z,0.40
2023-03-05T02:51:32.705Z,0.40
2023-03-05T02:53:36.457Z,0.30
2023-03-05T02:55:41.184Z,0.40
2023-03-05T02:57:45.018Z,0.50
2023-03-05T02:59:49.141Z,0.40
2023-03-05T03:01:52.428Z,0.30
2023-03-05T03:03:56.187Z,0.20
2023-03-05T03:05:59.477Z,0.40
2023-03-05T03:08:02.914Z,0.20
2023-03-05T03:10:07.388Z,0.20
2023-03-05T03:12:13.379Z,0.10
2023-03-05T03:14:16.944Z,0.20
2023-03-05T03:16:20.273Z,0.20
2023-03-05T03:18:24.439Z,0.10
2023-03-05T03:20:27.864Z,0.20
2023-03-05T03:22:31.440Z,0.20
2023-03-05T03:24:36.283Z,0.10
2023-03-05T03:26:39.595Z,0.10
2023-03-05T03:28:44.402Z,0.20
2023-03-05T03:30:47.940Z,0.10
2023-03-05T03:32:52.604Z,0.00
2023-03-05T03:34:55.986Z,0.00
2023-03-05T03:36:59.309Z,-0.10
2023-03-05T03:39:04.410Z,-0.10
2023-03-05T03:41:08.950Z,-0.10
2023-03-05T03:43:12.444Z,-0.20
2023-03-05T03:45:17.668Z,-0.10
2023-03-05T03:47:21.052Z,0.00
2023-03-05T03:49:26.730Z,0.00
2023-03-05T03:51:30.395Z,0.00
2023-03-05T03:53:33.814Z,0.00
2023-03-05T03:55:37.490Z,0.00
2023-03-05T03:57:40.924Z,-0.10
2023-03-05T03:59:46.238Z,-0.10
2023-03-05T04:01:51.246Z,-0.20
2023-03-05T04:03:55.104Z,-0.30
2023-03-05T04:05:58.597Z,-0.30
2023-03-05T04:08:03.328Z,-0.20
2023-03-05T04:10:07.665Z,-0.10
2023-03-05T04:12:11.691Z,-0.10
2023-03-05T04:14:15.196Z,-0.10
2023-03-05T04:16:19.496Z,-0.20
2023-03-05T04:18:24.470Z,-0.10
2023-03-05T04:20:28.021Z,-0.20
2023-03-05T04:22:31.550Z,-0.10
2023-03-05T04:24:34.915Z,-0.20
2023-03-05T04:26:38.514Z,-0.30
2023-03-05T04:28:41.909Z,-0.30
2023-03-05T04:30:45.393Z,-0.30
2023-03-05T04:32:48.991Z,-0.40
2023-03-05T04:34:53.773Z,-0.30
2023-03-05T04:36:57.208Z,-0.40
2023-03-05T04:39:01.035Z,-0.40
2023-03-05T04:41:04.399Z,-0.30
2023-03-05T04:43:08.408Z,-0.40
2023-03-05T04:45:12.621Z,-0.40
2023-03-05T04:47:16.318Z,-0.40
2023-03-05T04:49:19.542Z,-0.30
2023-03-05T04:51:24.675Z,-0.30
2023-03-05T04:53:28.044Z,-0.40
2023-03-05T04:55:31.523Z,-0.50
2023-03-05T04:57:34.919Z,-0.40
2023-03-05T04:59:39.168Z,-0.40
2023-03-05T05:01:43.125Z,-0.40
2023-03-05T05:03:46.588Z,-0.50
2023-03-05T05:05:56.583Z,-0.40
2023-03-05T05:08:01.254Z,-0.40
2023-03-05T05:10:04.984Z,-0.40
2023-03-05T05:12:10.530Z,-0.60
2023-03-05T05:14:14.246Z,-0.60
2023-03-05T05:16:17.932Z,-0.50
2023-03-05T05:18:22.082Z,-0.40
2023-03-05T05:20:25.615Z,-0.30
2023-03-05T05:22:29.979Z,-0.40
2023-03-05T05:24:34.690Z,-0.30
2023-03-05T05:26:38.019Z,-0.30
2023-03-05T05:28:42.978Z,-0.20
2023-03-05T05:30:46.500Z,-0.20
2023-03-05T05:32:49.792Z,-0.10
2023-03-05T05:34:56.558Z,-0.30
2023-03-05T05:37:00.098Z,-0.20
2023-03-05T05:39:03.709Z,-0.20
2023-03-05T05:41:11.757Z,-0.40
2023-03-05T05:43:15.159Z,-0.40
2023-03-05T05:45:18.720Z,-0.30
2023-03-05T05:47:23.300Z,-0.30
2023-03-05T05:49:26.771Z,-0.20
2023-03-05T05:51:30.056Z,-0.20
2023-03-05T05:53:33.778Z,-0.30
2023-03-05T05:55:37.272Z,-0.40
2023-03-05T05:57:41.940Z,-0.40
2023-03-05T05:59:45.818Z,-0.10
2023-03-05T06:01:49.284Z,-0.10
2023-03-05T06:03:52.708Z,0.10
2023-03-05T06:05:56.423Z,0.30
2023-03-05T06:07:59.642Z,0.40
2023-03-05T06:10:03.576Z,0.40
2023-03-05T06:12:09.206Z,0.40
2023-03-05T06:14:15.050Z,0.20
2023-03-05T06:16:20.989Z,0.50
2023-03-05T06:18:24.398Z,0.50
2023-03-05T06:20:28.576Z,0.60
2023-03-05T06:22:32.101Z,0.50
2023-03-05T06:24:35.864Z,0.80
2023-03-05T06:26:39.163Z,0.70
2023-03-05T06:28:43.008Z,1.00
2023-03-05T06:30:48.150Z,1.10
2023-03-05T06:32:51.525Z,1.10
2023-03-05T06:34:55.433Z,1.20
2023-03-05T06:36:59.034Z,1.30
2023-03-05T06:39:03.747Z,1.50
2023-03-05T06:41:11.626Z,1.80
2023-03-05T06:43:15.237Z,1.70
2023-03-05T06:45:18.698Z,1.90
2023-03-05T06:47:23.675Z,2.10
2023-03-05T06:49:26.965Z,2.10
2023-03-05T06:51:32.622Z,2.20
2023-03-05T06:53:38.086Z,2.30
2023-03-05T06:55:41.435Z,2.50
2023-03-05T06:57:45.028Z,2.70
2023-03-05T06:59:48.388Z,3.00
2023-03-05T07:01:52.233Z,3.20
2023-03-05T07:03:59.712Z,3.30
2023-03-05T07:06:05.665Z,3.50
2023-03-05T07:08:09.777Z,3.70
2023-03-05T07:10:13.576Z,3.90
2023-03-05T07:12:17.173Z,4.00
2023-03-05T07:14:20.619Z,4.60
2023-03-05T07:16:25.754Z,5.70
2023-03-05T07:18:29.093Z,6.40
2023-03-05T07:20:36.027Z,7.90
2023-03-05T07:22:39.619Z,9.40
2023-03-05T07:24:43.060Z,10.60
2023-03-05T07:26:52.285Z,11.70
2023-03-05T07:28:56.517Z,12.40
2023-03-05T07:31:01.297Z,12.70
2023-03-05T07:33:07.700Z,12.20
2023-03-05T07:35:11.591Z,12.00
2023-03-05T07:37:19.242Z,12.80
2023-03-05T07:39:22.619Z,13.60
2023-03-05T07:41:26.980Z,14.60
2023-03-05T07:43:30.363Z,14.20
2023-03-05T07:45:36.075Z,14.10
2023-03-05T07:47:39.375Z,15.30
2023-03-05T07:49:43.681Z,16.40
2023-03-05T07:51:47.208Z,17.20
2023-03-05T07:53:56.154Z,17.40
2023-03-05T07:55:59.508Z,18.00
2023-03-05T07:58:03.500Z,18.70
2023-03-05T08:00:11.004Z,19.10
2023-03-05T08:02:19.698Z,19.60
2023-03-05T08:04:23.149Z,19.70
2023-03-05T08:06:27.267Z,20.50
2023-03-05T08:08:33.124Z,20.20
2023-03-05T08:10:39.516Z,20.30
2023-03-05T08:12:42.866Z,20.60
2023-03-05T08:14:47.695Z,20.50
2023-03-05T08:16:52.316Z,21.40
2023-03-05T08:18:57.453Z,21.40
2023-03-05T08:21:01.002Z,21.70
2023-03-05T08:23:06.401Z,21.90
2023-03-05T08:25:10.322Z,22.10
2023-03-05T08:27:15.356Z,20.70
2023-03-05T08:29:18.868Z,20.30
2023-03-05T08:31:28.207Z,20.20
2023-03-05T08:33:33.849Z,21.20
2023-03-05T08:35:38.794Z,21.10
2023-03-05T08:37:42.287Z,22.00
2023-03-05T08:39:46.052Z,22.60
2023-03-05T08:41:52.378Z,22.40
2023-03-05T08:43:57.370Z,22.60
2023-03-05T08:46:02.291Z,22.50
2023-03-05T08:48:08.431Z,21.20
2023-03-05T08:50:13.542Z,20.70
2023-03-05T08:52:19.682Z,21.80
2023-03-05T08:54:23.014Z,22.60
2023-03-05T08:56:31.388Z,22.80
2023-03-05T08:58:40.885Z,22.60
2023-03-05T09:00:48.061Z,21.20
2023-03-05T09:02:51.683Z,21.70
2023-03-05T09:04:57.344Z,21.30
2023-03-05T09:07:06.066Z,21.90
2023-03-05T09:09:16.241Z,20.70
2023-03-05T09:11:20.073Z,21.50
2023-03-05T09:13:23.918Z,22.60
2023-03-05T09:15:27.539Z,22.70
2023-03-05T09:17:32.547Z,22.90
2023-03-05T09:19:38.964Z,22.00
2023-03-05T09:21:43.125Z,22.30
2023-03-05T09:23:48.812Z,22.60
2023-03-05T09:25:52.471Z,22.30
2023-03-05T09:27:56.079Z,22.70
2023-03-05T09:29:59.577Z,23.10
2023-03-05T09:32:03.293Z,22.80
2023-03-05T09:34:09.343Z,22.60
2023-03-05T09:36:22.465Z,22.80
2023-03-05T09:38:26.261Z,23.60
2023-03-05T09:40:38.963Z,24.00
2023-03-05T09:43:04.890Z,23.60
2023-03-05T09:45:21.792Z,22.70
2023-03-05T09:47:48.325Z,23.00
2023-03-05T09:50:01.161Z,22.10
2023-03-05T09:52:15.899Z,20.90
2023-03-05T09:54:26.668Z,20.30
2023-03-05T09:56:35.186Z,20.80
2023-03-05T09:58:45.785Z,20.40
2023-03-05T10:00:51.276Z,20.70
2023-03-05T10:03:03.564Z,20.00
2023-03-05T10:05:19.160Z,21.10
2023-03-05T10:07:27.290Z,21.50
2023-03-05T10:09:47.566Z,21.70
2023-03-05T10:11:56.478Z,21.50
2023-03-05T10:14:00.073Z,21.30
2023-03-05T10:16:12.225Z,21.70
2023-03-05T10:18:25.006Z,22.00
2023-03-05T10:20:42.345Z,22.60
2023-03-05T10:23:02.793Z,21.90
2023-03-05T10:25:21.744Z,22.50
2023-03-05T10:27:41.552Z,23.00
2023-03-05T10:29:58.635Z,22.80
2023-03-05T10:32:14.654Z,22.80
2023-03-05T10:34:54.597Z,21.60
2023-03-05T10:37:25.197Z,22.20
2023-03-05T10:40:06.484Z,22.50
2023-03-05T10:42:18.162Z,22.30
2023-03-05T10:44:28.353Z,21.30
2023-03-05T10:46:36.246Z,21.40
2023-03-05T10:48:44.695Z,22.00
2023-03-05T10:50:51.838Z,22.00
2023-03-05T10:53:08.001Z,22.50
2023-03-05T10:55:16.922Z,23.50
2023-03-05T10:57:22.880Z,23.80
2023-03-05T10:59:26.364Z,23.60
2023-03-05T11:01:32.106Z,22.80
2023-03-05T11:03:50.349Z,23.80
2023-03-05T11:06:01.276Z,23.00
2023-03-05T11:08:29.842Z,22.20
2023-03-05T11:10:36.909Z,22.80
2023-03-05T11:12:40.671Z,24.10
2023-03-05T11:14:46.029Z,24.50
2023-03-05T11:16:53.708Z,24.30
2023-03-05T11:19:24.562Z,24.20
2023-03-05T11:21:33.397Z,23.90
2023-03-05T11:23:38.523Z,23.50
2023-03-05T11:26:01.033Z,23.90
2023-03-05T11:28:05.806Z,22.80
2023-03-05T11:31:46.690Z,22.90
2023-03-05T11:33:29.242Z,21.90
2023-03-05T11:35:36.086Z,22.80
2023-03-05T11:37:39.613Z,23.20
2023-03-05T11:39:46.280Z,22.90
2023-03-05T11:41:52.516Z,22.70
2023-03-05T11:43:56.979Z,22.20
2023-03-05T11:46:05.252Z,22.10
2023-03-05T11:48:15.013Z,22.10
2023-03-05T11:50:23.749Z,21.80
2023-03-05T11:52:33.570Z,22.30
2023-03-05T11:54:49.076Z,23.30
2023-03-05T11:56:54.738Z,23.90
2023-03-05T11:59:03.302Z,23.20
2023-03-05T12:01:18.095Z,24.00
2023-03-05T12:03:30.609Z,24.20
2023-03-05T12:05:35.914Z,24.20
2023-03-05T12:07:43.320Z,24.10
2023-03-05T12:09:49.563Z,24.00
2023-03-05T12:12:00.014Z,23.70
2023-03-05T12:14:08.062Z,23.10
2023-03-05T12:16:18.519Z,23.30
2023-03-05T12:18:39.906Z,23.50
2023-03-05T12:20:50.732Z,23.20
2023-03-05T12:22:54.787Z,23.30
2023-03-05T12:25:25.812Z,23.60
2023-03-05T12:27:39.558Z,23.20
2023-03-05T12:29:51.339Z,22.90
2023-03-05T12:31:55.152Z,23.10
2023-03-05T12:33:58.553Z,23.00
2023-03-05T12:36:41.705Z,23.00
2023-03-05T12:38:46.435Z,22.10
2023-03-05T12:40:49.887Z,22.20
2023-03-05T12:43:02.995Z,21.90
2023-03-05T12:45:41.003Z,21.90
2023-03-05T12:47:48.100Z,21.60
2023-03-05T12:49:51.884Z,21.40
2023-03-05T12:51:56.740Z,21.50
2023-03-05T12:54:24.496Z,21.40
2023-03-05T12:56:32.877Z,21.70
2023-03-05T12:58:42.313Z,21.80
2023-03-05T13:00:50.180Z,21.40
2023-03-05T13:02:58.917Z,20.30
2023-03-05T13:05:06.140Z,20.20
2023-03-05T13:07:17.373Z,19.50
2023-03-05T13:09:27.649Z,18.20
2023-03-05T13:11:34.549Z,17.50
2023-03-05T13:13:44.610Z,17.40
2023-03-05T13:15:49.703Z,17.10
2023-03-05T13:17:56.800Z,16.30
2023-03-05T13:20:01.581Z,16.20
2023-03-05T13:22:12.168Z,16.40
2023-03-05T13:24:19.668Z,17.20
2023-03-05T13:26:23.142Z,18.00
2023-03-05T13:28:27.037Z,18.30
2023-03-05T13:30:34.323Z,18.20
2023-03-05T13:32:38.338Z,18.30
2023-03-05T13:34:49.751Z,18.70
2023-03-05T13:36:58.622Z,18.40
2023-03-05T13:39:04.486Z,19.00
2023-03-05T13:41:24.144Z,19.10
2023-03-05T13:43:27.847Z,19.40
2023-03-05T13:45:33.780Z,19.30
2023-03-05T13:47:41.493Z,19.40
2023-03-05T13:49:47.324Z,19.20
2023-03-05T13:51:52.884Z,19.10
2023-03-05T13:53:57.295Z,19.20
2023-03-05T13:56:02.644Z,19.10
2023-03-05T13:58:07.050Z,19.10
2023-03-05T14:00:27.807Z,19.10
2023-03-05T14:02:33.518Z,18.70
2023-03-05T14:04:39.107Z,18.40
2023-03-05T14:06:48.275Z,18.10
2023-03-05T14:08:53.591Z,18.70
2023-03-05T14:10:59.868Z,18.70
2023-03-05T14:13:07.559Z,19.20
2023-03-05T14:15:23.481Z,19.00
2023-03-05T14:17:39.944Z,18.70
2023-03-05T14:19:43.443Z,18.50
2023-03-05T14:21:49.210Z,18.30
2023-03-05T14:23:55.213Z,18.20
2023-03-05T14:26:19.537Z,18.00
2023-03-05T14:28:27.663Z,18.20
2023-03-05T14:30:31.854Z,17.90
2023-03-05T14:32:38.331Z,18.10
2023-03-05T14:34:43.618Z,18.10
2023-03-05T14:36:50.337Z,18.10
2023-03-05T14:38:55.055Z,18.20
2023-03-05T14:40:58.690Z,18.60
2023-03-05T14:43:04.226Z,18.00
2023-03-05T14:45:19.240Z,17.70
2023-03-05T14:47:22.949Z,16.80
2023-03-05T14:49:27.873Z,16.60
2023-03-05T14:51:32.187Z,16.90
2023-03-05T14:53:41.043Z,16.90
2023-03-05T14:55:45.328Z,16.60
2023-03-05T14:57:51.803Z,16.20
2023-03-05T14:59:55.924Z,16.60
2023-03-05T15:01:59.494Z,16.80
2023-03-05T15:04:02.846Z,16.60
2023-03-05T15:06:09.369Z,16.50
2023-03-05T15:08:18.852Z,16.30
2023-03-05T15:10:25.361Z,16.20
2023-03-05T15:12:28.942Z,15.70
2023-03-05T15:14:32.697Z,15.60
2023-03-05T15:16:36.443Z,15.50
2023-03-05T15:18:40.046Z,15.40
2023-03-05T15:20:44.617Z,15.40
2023-03-05T15:22:49.902Z,14.80
2023-03-05T15:24:53.597Z,14.30
2023-03-05T15:26:57.811Z,14.20
2023-03-05T15:29:01.591Z,13.90
2023-03-05T15:31:06.560Z,13.40
2023-03-05T15:33:12.238Z,13.20
2023-03-05T15:35:15.784Z,13.20
2023-03-05T15:37:19.329Z,13.10
2023-03-05T15:39:25.483Z,13.10
2023-03-05T15:41:28.989Z,12.90
2023-03-05T15:43:32.365Z,12.40
2023-03-05T15:45:35.861Z,12.30
2023-03-05T15:47:39.262Z,12.00
2023-03-05T15:49:42.867Z,11.80
2023-03-05T15:51:46.725Z,11.60
2023-03-05T15:53:50.303Z,11.60
2023-03-05T15:55:55.169Z,11.70
2023-03-05T15:57:58.664Z,11.50
2023-03-05T16:00:02.366Z,11.50
2023-03-05T16:02:06.438Z,11.30
2023-03-05T16:04:10.135Z,11.00
2023-03-05T16:06:16.049Z,10.70
2023-03-05T16:08:22.654Z,10.40
2023-03-05T16:10:28.412Z,10.30
2023-03-05T16:12:40.951Z,10.20
2023-03-05T16:14:44.509Z,10.00
2023-03-05T16:16:52.141Z,10.00
2023-03-05T16:18:56.346Z,10.00
2023-03-05T16:23:34.749Z,9.80
2023-03-05T16:25:39.057Z,9.90
2023-03-05T16:27:44.223Z,9.70
2023-03-05T16:29:47.996Z,9.70
2023-03-05T16:31:51.584Z,9.60
2023-03-05T16:33:55.383Z,9.60
2023-03-05T16:36:23.379Z,9.60
2023-03-05T16:38:27.265Z,9.40
2023-03-05T16:40:56.541Z,9.10
2023-03-05T16:42:56.579Z,8.90
2023-03-05T16:45:00.232Z,8.70
2023-03-05T16:47:04.792Z,8.70
2023-03-05T16:49:08.660Z,8.70
2023-03-05T16:51:13.258Z,8.50
2023-03-05T16:53:17.264Z,8.50
2023-03-05T16:55:20.851Z,8.30
2023-03-05T16:57:26.577Z,8.30
2023-03-05T16:59:31.599Z,8.30
2023-03-05T17:01:35.295Z,8.00
2023-03-05T17:03:41.624Z,8.00
2023-03-05T17:05:45.326Z,7.80
2023-03-05T17:07:48.787Z,7.70
2023-03-05T17:09:53.179Z,7.60
2023-03-05T17:11:56.877Z,7.40
2023-03-05T17:14:00.381Z,7.30
2023-03-05T17:16:06.421Z,7.10
2023-03-05T17:18:10.242Z,6.90
2023-03-05T17:20:14.538Z,6.80
2023-03-05T17:22:18.537Z,6.60
2023-03-05T17:24:22.899Z,6.50
2023-03-05T17:26:26.656Z,6.60
2023-03-05T17:28:30.094Z,6.60
2023-03-05T17:30:36.643Z,6.60
2023-03-05T17:32:41.824Z,6.30
2023-03-05T17:34:45.514Z,6.30
2023-03-05T17:36:50.619Z,6.20
2023-03-05T17:38:54.867Z,6.20
2023-03-05T17:40:58.530Z,6.10
2023-03-05T17:43:02.329Z,6.00
2023-03-05T17:45:07.175Z,5.90
2023-03-05T17:47:10.727Z,5.90
2023-03-05T17:49:15.683Z,5.70
2023-03-05T17:51:19.360Z,5.70
2023-03-05T17:53:24.111Z,5.70
2023-03-05T17:55:27.911Z,5.70
2023-03-05T17:57:31.506Z,5.60
2023-03-05T17:59:35.454Z,5.40
2023-03-05T18:01:38.988Z,5.50
2023-03-05T18:03:42.789Z,5.40
2023-03-05T18:05:48.037Z,5.30
2023-03-05T18:07:51.929Z,5.20
2023-03-05T18:09:55.682Z,5.30
2023-03-05T18:11:59.982Z,5.30
2023-03-05T18:14:03.744Z,5.10
2023-03-05T18:16:07.957Z,4.90
2023-03-05T18:18:11.592Z,5.00
2023-03-05T18:20:26.728Z,4.90
2023-03-05T18:22:31.871Z,4.70
2023-03-05T18:24:35.685Z,4.80
2023-03-05T18:26:39.553Z,4.70
2023-03-05T18:28:43.185Z,4.70
2023-03-05T18:30:49.991Z,4.80
2023-03-05T18:32:53.620Z,4.70
2023-03-05T18:34:57.109Z,4.50
2023-03-05T18:37:01.437Z,4.60
2023-03-05T18:39:06.619Z,4.60
2023-03-05T18:41:10.260Z,4.30
2023-03-05T18:43:17.449Z,4.40
2023-03-05T18:45:23.519Z,4.50
2023-03-05T18:47:27.339Z,4.30
2023-03-05T18:49:30.785Z,4.40
2023-03-05T18:51:38.379Z,4.40
2023-03-05T18:53:41.810Z,4.40
2023-03-05T18:55:47.077Z,4.30
2023-03-05T18:57:50.602Z,4.30
2023-03-05T18:59:54.298Z,4.20
2023-03-05T19:01:58.133Z,4.10
2023-03-05T19:04:01.866Z,4.10
2023-03-05T19:06:07.487Z,4.10
2023-03-05T19:08:11.362Z,4.30
2023-03-05T19:10:16.411Z,4.30
2023-03-05T19:12:22.374Z,4.40
2023-03-05T19:14:25.867Z,4.50
2023-03-05T19:16:37.219Z,4.50
2023-03-05T19:18:47.981Z,4.60
2023-03-05T19:20:56.613Z,4.60
2023-03-05T19:23:00.195Z,4.60
2023-03-05T19:25:03.916Z,4.50
2023-03-05T19:27:13.251Z,4.50
2023-03-05T19:29:20.020Z,4.60
2023-03-05T19:31:23.865Z,4.70
2023-03-05T19:33:27.602Z,4.60
2023-03-05T19:35:31.211Z,4.50
2023-03-05T19:37:34.799Z,4.60
2023-03-05T19:39:38.830Z,4.70
2023-03-05T19:41:42.237Z,4.70
2023-03-05T19:43:46.854Z,4.70
2023-03-05T19:45:52.321Z,4.80
2023-03-05T19:47:56.376Z,4.80
2023-03-05T19:49:59.768Z,4.70
2023-03-05T19:52:04.310Z,4.80
2023-03-05T19:54:08.168Z,4.90
2023-03-05T19:56:16.069Z,4.90
2023-03-05T19:58:20.481Z,5.10
2023-03-05T20:00:26.464Z,5.10
2023-03-05T20:02:32.815Z,5.00
2023-03-05T20:04:36.508Z,5.00
2023-03-05T20:06:40.032Z,5.20
2023-03-05T20:08:43.791Z,5.30
2023-03-05T20:10:47.409Z,5.40
2023-03-05T20:12:51.508Z,5.50
2023-03-05T20:14:54.910Z,5.70
2023-03-05T20:16:58.951Z,5.60
2023-03-05T20:19:04.890Z,5.60
2023-03-05T20:21:08.675Z,5.50
2023-03-05T20:23:12.082Z,5.50
2023-03-05T20:25:17.644Z,5.40
2023-03-05T20:27:21.096Z,5.50
2023-03-05T20:29:24.699Z,5.70
2023-03-05T20:31:28.659Z,5.60
2023-03-05T20:33:32.116Z,5.50
2023-03-05T20:35:37.195Z,5.50
2023-03-05T20:37:49.576Z,5.70
2023-03-05T20:39:53.019Z,5.80
2023-03-05T20:41:56.732Z,5.80
2023-03-05T20:44:00.138Z,5.80
2023-03-05T20:46:04.870Z,6.00
2023-03-05T20:48:08.974Z,5.90
2023-03-05T20:50:14.520Z,6.10
2023-03-05T20:52:19.564Z,6.10
2023-03-05T20:54:24.256Z,6.20
2023-03-05T20:56:28.494Z,6.00
2023-03-05T20:58:32.040Z,6.00
2023-03-05T21:00:36.361Z,5.80
2023-03-05T21:02:40.046Z,5.90
2023-03-05T21:04:43.489Z,5.70
2023-03-05T21:06:47.250Z,5.70
2023-03-05T21:08:52.126Z,5.90
2023-03-05T21:10:55.812Z,5.70
2023-03-05T21:13:00.899Z,5.70
2023-03-05T21:15:04.851Z,5.80
2023-03-05T21:17:08.953Z,5.80
2023-03-05T21:19:12.545Z,5.80
2023-03-05T21:21:19.395Z,5.80
2023-03-05T21:23:23.103Z,5.90
2023-03-05T21:25:29.161Z,5.70
2023-03-05T21:27:32.867Z,5.80
2023-03-05T21:29:36.479Z,5.90
2023-03-05T21:31:39.977Z,5.90
2023-03-05T21:33:43.671Z,6.10
2023-03-05T21:35:47.450Z,6.30
2023-03-05T21:37:52.677Z,6.40
2023-03-05T21:39:56.103Z,6.40
2023-03-05T21:42:00.956Z,6.40
2023-03-05T21:44:06.154Z,6.30
2023-03-05T21:48:27.147Z,6.40
2023-03-05T21:50:30.558Z,6.30
2023-03-05T21:52:34.329Z,6.40
2023-03-05T21:54:38.123Z,6.40
2023-03-05T21:56:41.657Z,6.40
2023-03-05T21:58:46.884Z,6.40
2023-03-05T22:00:50.499Z,6.10
2023-03-05T22:02:57.870Z,6.30
2023-03-05T22:05:01.386Z,6.20
2023-03-05T22:07:06.456Z,6.30
2023-03-05T22:09:10.290Z,6.20
2023-03-05T22:11:15.937Z,6.30
2023-03-05T22:13:20.704Z,6.30
2023-03-05T22:15:29.090Z,6.30
2023-03-05T22:17:32.568Z,6.40
2023-03-05T22:19:36.061Z,6.40
2023-03-05T22:21:39.657Z,6.20
2023-03-05T22:23:43.085Z,6.30
2023-03-05T22:25:46.985Z,6.20
2023-03-05T22:27:50.483Z,6.10
2023-03-05T22:29:53.748Z,5.90
2023-03-05T22:31:58.569Z,6.00
2023-03-05T22:34:02.273Z,6.10
2023-03-05T22:36:10.398Z,6.10
2023-03-05T22:38:14.777Z,6.30
2023-03-05T22:40:20.845Z,6.20
2023-03-05T22:42:24.978Z,6.20
2023-03-05T22:44:28.398Z,5.80
2023-03-05T22:46:32.041Z,5.80
2023-03-05T22:48:37.047Z,5.90
2023-03-05T22:50:41.772Z,6.10
2023-03-05T22:52:45.287Z,5.90
2023-03-05T22:54:48.863Z,5.70
2023-03-05T22:56:52.386Z,5.60
2023-03-05T22:58:55.764Z,5.70
2023-03-05T23:00:59.621Z,5.80
2023-03-05T23:03:03.218Z,5.90
2023-03-05T23:05:09.280Z,6.00
2023-03-05T23:07:13.029Z,6.00
2023-03-05T23:09:19.242Z,6.10
2023-03-05T23:11:22.745Z,6.10
2023-03-05T23:13:26.444Z,6.10
2023-03-05T23:15:31.471Z,5.80
2023-03-05T23:17:34.919Z,5.60
2023-03-05T23:19:40.090Z,5.60
2023-03-05T23:21:44.986Z,5.80
2023-03-05T23:23:48.494Z,5.90
2023-03-05T23:25:56.064Z,6.10
2023-03-05T23:28:00.160Z,6.10
2023-03-05T23:30:16.191Z,6.00
2023-03-05T23:32:19.599Z,5.90
2023-03-05T23:34:23.383Z,5.90
2023-03-05T23:36:27.409Z,5.80
2023-03-05T23:38:33.311Z,5.90
2023-03-05T23:40:38.685Z,6.00
2023-03-05T23:42:42.698Z,5.90
2023-03-05T23:44:46.326Z,5.90
2023-03-05T23:46:49.657Z,5.80
2023-03-05T23:48:53.013Z,5.90
2023-03-05T23:50:56.954Z,5.90
2023-03-05T23:53:02.108Z,5.80
2023-03-05T23:55:08.396Z,5.70
2023-03-05T23:57:11.922Z,5.80
2023-03-05T23:59:15.472Z,5.90
